createdAt,value
2019-04-28T00:01:17.724Z,30.80
2019-04-28T00:03:47.121Z,31.77
2019-04-28T00:06:16.011Z,31.50
2019-04-28T00:08:45.316Z,32.73
2019-04-28T00:11:14.096Z,31.93
2019-04-28T00:13:42.994Z,33.00
2019-04-28T00:16:11.729Z,34.70
2019-04-28T00:18:41.578Z,35.10
2019-04-28T00:21:20.872Z,33.63
2019-04-28T00:24:07.951Z,35.33
2019-04-28T00:26:57.423Z,34.43
2019-04-28T00:29:37.714Z,33.70
2019-04-28T00:31:56.841Z,34.83
2019-04-28T00:34:26.147Z,35.20
2019-04-28T00:37:06.267Z,33.63
2019-04-28T00:39:35.288Z,34.37
2019-04-28T00:42:04.594Z,34.43
2019-04-28T00:44:33.690Z,33.67
2019-04-28T00:47:02.349Z,35.43
2019-04-28T00:49:46.432Z,34.83
2019-04-28T00:52:16.099Z,35.93
2019-04-28T00:54:45.520Z,34.87
2019-04-28T00:57:14.838Z,37.37
2019-04-28T00:59:54.171Z,37.07
2019-04-28T01:02:22.530Z,36.60
2019-04-28T01:04:51.559Z,38.30
2019-04-28T01:07:21.314Z,38.00
2019-04-28T01:09:51.664Z,37.27
2019-04-28T01:12:21.444Z,37.67
2019-04-28T01:14:52.266Z,37.60
2019-04-28T01:17:26.226Z,38.40
2019-04-28T01:19:56.771Z,39.27
2019-04-28T01:22:26.177Z,37.60
2019-04-28T01:24:55.072Z,38.90
2019-04-28T01:27:50.577Z,39.90
2019-04-28T01:30:54.412Z,39.40
2019-04-28T01:33:35.055Z,39.27
2019-04-28T01:36:04.161Z,37.67
2019-04-28T01:38:33.207Z,37.77
2019-04-28T01:41:01.840Z,36.80
2019-04-28T01:43:31.250Z,33.17
2019-04-28T01:46:00.336Z,33.27
2019-04-28T01:48:29.860Z,30.63
2019-04-28T01:50:59.850Z,30.23
2019-04-28T01:53:30.857Z,29.60
2019-04-28T01:55:59.798Z,29.13
2019-04-28T01:58:29.675Z,27.63
2019-04-28T02:00:59.569Z,28.00
2019-04-28T02:03:30.603Z,29.47
2019-04-28T02:06:00.199Z,28.53
2019-04-28T02:08:30.198Z,27.47
2019-04-28T02:11:00.103Z,25.43
2019-04-28T02:13:29.869Z,25.90
2019-04-28T02:16:00.039Z,24.40
2019-04-28T02:18:30.043Z,24.53
2019-04-28T02:21:06.291Z,22.53
2019-04-28T02:23:36.341Z,23.00
2019-04-28T02:26:05.228Z,22.23
2019-04-28T02:28:33.922Z,22.73
2019-04-28T02:31:03.214Z,22.60
2019-04-28T02:33:31.833Z,23.27
2019-04-28T02:36:01.597Z,21.47
2019-04-28T02:38:31.382Z,21.77
2019-04-28T02:41:01.237Z,23.83
2019-04-28T02:43:30.875Z,21.53
2019-04-28T02:46:00.668Z,22.90
2019-04-28T02:48:30.966Z,23.77
2019-04-28T02:51:05.788Z,23.80
2019-04-28T02:53:37.574Z,23.77
2019-04-28T02:56:06.443Z,23.27
2019-04-28T02:58:35.356Z,24.37
2019-04-28T03:01:12.846Z,23.83
2019-04-28T03:03:35.494Z,24.73
2019-04-28T03:06:04.279Z,26.27
2019-04-28T03:08:33.177Z,25.60
2019-04-28T03:11:02.222Z,25.33
2019-04-28T03:13:31.323Z,26.30
2019-04-28T03:16:01.745Z,26.30
2019-04-28T03:18:31.585Z,26.37
2019-04-28T03:21:01.669Z,26.10
2019-04-28T03:23:31.550Z,25.47
2019-04-28T03:26:14.740Z,25.63
2019-04-28T03:28:50.697Z,24.00
2019-04-28T03:32:07.207Z,25.80
2019-04-28T03:34:04.002Z,24.60
2019-04-28T03:36:33.467Z,24.93
2019-04-28T03:39:04.241Z,24.93
2019-04-28T03:41:33.282Z,25.37
2019-04-28T03:44:02.018Z,26.50
2019-04-28T03:46:32.422Z,25.17
2019-04-28T03:49:01.295Z,26.03
2019-04-28T03:51:30.993Z,25.80
2019-04-28T03:54:02.928Z,26.07
2019-04-28T03:56:31.155Z,25.07
2019-04-28T03:59:00.480Z,24.87
2019-04-28T04:01:30.559Z,24.57
2019-04-28T04:04:03.081Z,26.23
2019-04-28T04:06:31.122Z,26.17
2019-04-28T04:09:00.467Z,25.60
2019-04-28T04:11:43.543Z,24.97
2019-04-28T04:14:43.844Z,24.40
2019-04-28T04:17:17.412Z,24.20
2019-04-28T04:19:46.487Z,24.23
2019-04-28T04:22:15.477Z,24.23
2019-04-28T04:24:44.672Z,24.67
2019-04-28T04:27:13.317Z,25.30
2019-04-28T04:29:43.668Z,26.77
2019-04-28T04:32:22.851Z,25.07
2019-04-28T04:34:43.897Z,25.93
2019-04-28T04:37:12.873Z,26.10
2019-04-28T04:39:41.703Z,26.20
2019-04-28T04:42:10.701Z,25.57
2019-04-28T04:44:41.483Z,24.73
2019-04-28T04:47:10.895Z,27.60
2019-04-28T04:49:40.548Z,24.47
2019-04-28T04:52:10.471Z,26.57
2019-04-28T04:54:40.098Z,28.93
2019-04-28T04:57:11.021Z,28.20
2019-04-28T04:59:40.328Z,28.07
2019-04-28T05:02:33.117Z,25.17
2019-04-28T05:05:27.857Z,25.03
2019-04-28T05:07:56.867Z,27.67
2019-04-28T05:10:25.847Z,28.13
2019-04-28T05:12:55.149Z,28.53
2019-04-28T05:15:24.042Z,27.63
2019-04-28T05:17:52.927Z,25.73
2019-04-28T05:20:21.942Z,24.40
2019-04-28T05:22:57.753Z,23.17
2019-04-28T05:25:34.657Z,22.80
2019-04-28T05:28:03.547Z,23.43
2019-04-28T05:30:34.913Z,22.67
2019-04-28T05:33:03.175Z,22.33
2019-04-28T05:35:35.551Z,20.53
2019-04-28T05:38:03.312Z,18.30
2019-04-28T05:40:32.205Z,19.37
2019-04-28T05:43:01.376Z,18.10
2019-04-28T05:45:32.163Z,17.23
2019-04-28T05:48:01.765Z,17.27
2019-04-28T05:50:35.850Z,17.17
2019-04-28T05:53:32.489Z,17.43
2019-04-28T05:56:15.030Z,17.10
2019-04-28T05:58:53.176Z,18.63
2019-04-28T06:01:40.618Z,17.53
2019-04-28T06:04:11.104Z,15.73
2019-04-28T06:06:41.906Z,16.13
2019-04-28T06:09:16.331Z,17.23
2019-04-28T06:11:45.329Z,16.00
2019-04-28T06:14:13.950Z,17.57
2019-04-28T06:16:42.903Z,17.70
2019-04-28T06:19:11.815Z,17.13
2019-04-28T06:21:41.093Z,17.90
2019-04-28T06:24:09.751Z,17.57
2019-04-28T06:26:38.776Z,18.77
2019-04-28T06:29:07.664Z,19.07
2019-04-28T06:31:36.672Z,18.93
2019-04-28T06:34:05.363Z,18.73
2019-04-28T06:36:33.985Z,19.97
2019-04-28T06:39:04.258Z,18.40
2019-04-28T06:41:33.144Z,18.87
2019-04-28T06:44:02.449Z,19.43
2019-04-28T06:46:31.338Z,19.77
2019-04-28T06:49:00.227Z,20.13
2019-04-28T06:51:29.119Z,20.43
2019-04-28T06:53:58.031Z,20.10
2019-04-28T06:56:27.310Z,21.43
2019-04-28T06:58:59.339Z,20.70
2019-04-28T07:01:26.939Z,18.77
2019-04-28T07:03:56.137Z,19.70
2019-04-28T07:06:25.022Z,20.17
2019-04-28T07:08:54.318Z,18.67
2019-04-28T07:11:23.034Z,20.23
2019-04-28T07:13:51.798Z,20.43
2019-04-28T07:16:20.618Z,20.40
2019-04-28T07:18:49.585Z,19.57
2019-04-28T07:21:32.795Z,20.13
2019-04-28T07:24:01.932Z,20.47
2019-04-28T07:26:30.576Z,19.27
2019-04-28T07:28:59.793Z,19.50
2019-04-28T07:31:28.437Z,18.30
2019-04-28T07:33:57.483Z,19.37
2019-04-28T07:36:26.796Z,19.27
2019-04-28T07:38:55.772Z,18.60
2019-04-28T07:41:24.666Z,19.00
2019-04-28T07:43:53.763Z,17.57
2019-04-28T07:46:22.955Z,18.00
2019-04-28T07:48:52.520Z,18.50
2019-04-28T07:51:23.113Z,18.67
2019-04-28T07:53:56.287Z,19.20
2019-04-28T07:56:25.729Z,18.03
2019-04-28T07:58:54.361Z,18.40
2019-04-28T08:01:23.471Z,19.50
2019-04-28T08:03:52.083Z,20.23
2019-04-28T08:06:20.712Z,18.53
2019-04-28T08:08:49.945Z,18.53
2019-04-28T08:11:18.830Z,18.77
2019-04-28T08:13:47.463Z,20.40
2019-04-28T08:16:16.374Z,19.33
2019-04-28T08:18:45.302Z,19.00
2019-04-28T08:21:14.195Z,18.87
2019-04-28T08:23:47.406Z,17.97
2019-04-28T08:26:13.717Z,17.63
2019-04-28T08:28:42.714Z,17.40
2019-04-28T08:31:13.371Z,18.17
2019-04-28T08:34:01.375Z,18.70
2019-04-28T08:36:19.826Z,19.10
2019-04-28T08:38:48.721Z,18.23
2019-04-28T08:41:17.733Z,17.80
2019-04-28T08:43:46.439Z,19.63
2019-04-28T08:46:15.392Z,20.17
2019-04-28T08:48:44.055Z,20.47
2019-04-28T08:51:13.000Z,19.77
2019-04-28T08:53:41.862Z,19.47
2019-04-28T08:56:10.854Z,21.10
2019-04-28T08:58:39.748Z,22.50
2019-04-28T09:01:08.740Z,21.63
2019-04-28T09:03:38.042Z,21.47
2019-04-28T09:06:06.747Z,19.83
2019-04-28T09:08:35.682Z,20.50
2019-04-28T09:11:04.723Z,21.53
2019-04-28T09:13:33.716Z,21.43
2019-04-28T09:16:02.914Z,22.90
2019-04-28T09:18:31.639Z,22.27
2019-04-28T09:21:00.905Z,21.97
2019-04-28T09:23:30.199Z,22.50
2019-04-28T09:25:59.136Z,22.43
2019-04-28T09:28:28.188Z,21.40
2019-04-28T09:30:56.901Z,21.40
2019-04-28T09:33:25.867Z,20.97
2019-04-28T09:35:55.064Z,21.23
2019-04-28T09:38:23.686Z,20.73
2019-04-28T09:40:52.642Z,21.60
2019-04-28T09:43:29.229Z,20.37
2019-04-28T09:46:03.428Z,21.57
2019-04-28T09:48:32.317Z,21.53
2019-04-28T09:51:00.953Z,21.33
2019-04-28T09:53:29.897Z,22.10
2019-04-28T09:55:58.511Z,20.60
2019-04-28T09:58:27.787Z,20.80
2019-04-28T10:00:56.773Z,21.37
2019-04-28T10:03:25.739Z,19.80
2019-04-28T10:05:54.662Z,19.33
2019-04-28T10:08:23.302Z,19.10
2019-04-28T10:10:52.220Z,20.47
2019-04-28T10:13:21.131Z,20.73
2019-04-28T10:15:50.121Z,26.40
2019-04-28T10:18:19.039Z,22.80
2019-04-28T10:20:48.007Z,21.00
2019-04-28T10:23:17.314Z,19.73
2019-04-28T10:25:46.330Z,20.23
2019-04-28T10:28:15.873Z,19.87
2019-04-28T10:30:44.905Z,19.20
2019-04-28T10:33:13.567Z,17.67
2019-04-28T10:35:42.584Z,17.00
2019-04-28T10:38:11.498Z,17.63
2019-04-28T10:41:05.267Z,18.73
2019-04-28T10:43:34.556Z,17.77
2019-04-28T10:46:04.284Z,17.20
2019-04-28T10:48:33.277Z,18.23
2019-04-28T10:51:01.987Z,19.50
2019-04-28T10:53:30.937Z,17.73
2019-04-28T10:55:59.663Z,16.13
2019-04-28T10:58:28.310Z,17.23
2019-04-28T11:00:57.507Z,17.47
2019-04-28T11:03:26.396Z,16.93
2019-04-28T11:05:55.603Z,16.57
2019-04-28T11:08:37.301Z,16.37
2019-04-28T11:11:22.869Z,16.60
2019-04-28T11:13:51.871Z,16.53
2019-04-28T11:16:24.443Z,18.00
2019-04-28T11:18:53.747Z,16.70
2019-04-28T11:21:22.738Z,15.63
2019-04-28T11:23:52.346Z,16.40
2019-04-28T11:26:21.074Z,14.73
2019-04-28T11:28:50.032Z,16.60
2019-04-28T11:31:18.646Z,16.57
2019-04-28T11:33:55.635Z,15.77
2019-04-28T11:36:24.326Z,16.37
2019-04-28T11:38:53.594Z,16.47
2019-04-28T11:41:22.640Z,15.57
2019-04-28T11:43:51.565Z,15.77
2019-04-28T11:46:22.110Z,15.27
2019-04-28T11:48:51.092Z,15.83
2019-04-28T11:51:20.286Z,14.87
2019-04-28T11:53:49.179Z,14.83
2019-04-28T11:56:18.382Z,16.30
2019-04-28T11:58:46.990Z,15.97
2019-04-28T12:01:16.390Z,15.77
2019-04-28T12:03:45.666Z,15.33
2019-04-28T12:06:14.971Z,14.93
2019-04-28T12:08:44.164Z,14.23
2019-04-28T12:11:23.059Z,15.03
2019-04-28T12:14:23.115Z,14.97
2019-04-28T12:17:18.303Z,13.63
2019-04-28T12:19:52.978Z,13.33
2019-04-28T12:22:21.947Z,13.53
2019-04-28T12:24:50.839Z,14.37
2019-04-28T12:27:19.832Z,12.77
2019-04-28T12:29:49.021Z,13.90
2019-04-28T12:32:17.920Z,12.73
2019-04-28T12:34:46.897Z,14.13
2019-04-28T12:37:16.311Z,12.60
2019-04-28T12:39:45.302Z,13.83
2019-04-28T12:42:14.734Z,13.10
2019-04-28T12:44:43.449Z,14.00
2019-04-28T12:47:12.359Z,12.93
2019-04-28T12:49:53.237Z,12.80
2019-04-28T12:52:23.944Z,14.33
2019-04-28T12:54:53.427Z,14.20
2019-04-28T12:57:22.309Z,12.87
2019-04-28T12:59:56.420Z,12.10
2019-04-28T13:02:40.151Z,12.60
2019-04-28T13:05:12.835Z,13.20
2019-04-28T13:07:43.190Z,11.00
2019-04-28T13:10:12.153Z,9.70
2019-04-28T13:12:40.973Z,12.47
2019-04-28T13:15:10.046Z,11.67
2019-04-28T13:17:39.052Z,11.17
2019-04-28T13:20:08.237Z,10.63
2019-04-28T13:22:37.673Z,9.50
2019-04-28T13:25:07.203Z,10.83
2019-04-28T13:27:35.932Z,9.90
2019-04-28T13:30:05.451Z,8.10
2019-04-28T13:32:35.767Z,9.37
2019-04-28T13:35:04.630Z,8.70
2019-04-28T13:37:36.136Z,9.00
2019-04-28T13:40:11.339Z,8.00
2019-04-28T13:42:40.278Z,6.73
2019-04-28T13:45:14.558Z,6.47
2019-04-28T13:47:43.579Z,6.50
2019-04-28T13:50:17.250Z,7.53
2019-04-28T13:52:46.237Z,7.77
2019-04-28T13:55:33.678Z,7.67
2019-04-28T13:58:03.391Z,7.50
2019-04-28T14:00:41.665Z,8.70
2019-04-28T14:03:22.642Z,7.70
2019-04-28T14:05:56.384Z,7.87
2019-04-28T14:08:25.254Z,8.53
2019-04-28T14:10:54.210Z,7.80
2019-04-28T14:13:22.792Z,7.40
2019-04-28T14:15:51.526Z,8.60
2019-04-28T14:18:20.737Z,7.80
2019-04-28T14:20:49.423Z,6.93
2019-04-28T14:23:18.035Z,7.50
2019-04-28T14:25:46.674Z,7.43
2019-04-28T14:28:16.203Z,7.17
2019-04-28T14:30:45.173Z,7.40
2019-04-28T14:33:16.635Z,8.53
2019-04-28T14:35:45.119Z,8.47
2019-04-28T14:38:13.895Z,7.37
2019-04-28T14:40:43.103Z,7.10
2019-04-28T14:43:12.086Z,7.13
2019-04-28T14:45:40.717Z,8.00
2019-04-28T14:48:09.721Z,7.13
2019-04-28T14:50:38.939Z,8.10
2019-04-28T14:53:08.823Z,7.60
2019-04-28T14:55:37.780Z,8.60
2019-04-28T14:58:06.774Z,8.63
2019-04-28T15:00:40.610Z,8.13
2019-04-28T15:03:11.746Z,9.50
2019-04-28T15:05:53.496Z,8.97
2019-04-28T15:08:44.406Z,8.37
2019-04-28T15:11:32.474Z,9.10
2019-04-28T15:14:01.470Z,8.30
2019-04-28T15:16:30.334Z,8.47
2019-04-28T15:18:59.545Z,7.40
2019-04-28T15:21:28.268Z,7.93
2019-04-28T15:23:56.928Z,8.10
2019-04-28T15:26:26.244Z,7.10
2019-04-28T15:28:54.888Z,7.57
2019-04-28T15:31:24.105Z,7.50
2019-04-28T15:33:53.142Z,6.93
2019-04-28T15:36:22.399Z,6.50
2019-04-28T15:38:51.697Z,7.63
2019-04-28T15:41:22.099Z,7.00
2019-04-28T15:43:51.263Z,7.77
2019-04-28T15:46:20.221Z,7.40
2019-04-28T15:48:48.827Z,7.60
2019-04-28T15:51:17.805Z,8.20
2019-04-28T15:53:49.251Z,6.73
2019-04-28T15:56:29.680Z,8.13
2019-04-28T15:58:58.609Z,7.90
2019-04-28T16:01:27.802Z,7.20
2019-04-28T16:03:56.453Z,6.13
2019-04-28T16:06:25.376Z,6.70
2019-04-28T16:08:54.263Z,7.07
2019-04-28T16:11:22.992Z,6.80
2019-04-28T16:13:51.927Z,9.17
2019-04-28T16:16:20.528Z,6.43
2019-04-28T16:18:49.527Z,6.20
2019-04-28T16:21:18.246Z,6.70
2019-04-28T16:23:47.239Z,6.30
2019-04-28T16:26:16.202Z,6.27
2019-04-28T16:28:45.196Z,5.93
2019-04-28T16:31:14.748Z,6.07
2019-04-28T16:33:43.717Z,6.10
2019-04-28T16:36:12.999Z,6.03
2019-04-28T16:38:41.960Z,5.30
2019-04-28T16:41:10.611Z,6.17
2019-04-28T16:43:41.006Z,5.83
2019-04-28T16:46:09.994Z,6.20
2019-04-28T16:48:39.288Z,6.47
2019-04-28T16:51:07.916Z,6.10
2019-04-28T16:53:37.177Z,6.27
2019-04-28T16:56:20.715Z,5.80
2019-04-28T16:59:13.981Z,6.10
2019-04-28T17:01:58.494Z,6.23
2019-04-28T17:04:27.220Z,5.93
2019-04-28T17:06:55.822Z,6.30
2019-04-28T17:09:24.898Z,5.47
2019-04-28T17:11:53.896Z,5.87
2019-04-28T17:14:22.606Z,6.33
2019-04-28T17:16:51.339Z,6.03
2019-04-28T17:19:19.966Z,6.20
2019-04-28T17:21:49.259Z,6.73
2019-04-28T17:24:18.256Z,5.97
2019-04-28T17:26:47.297Z,6.20
2019-04-28T17:29:16.013Z,5.70
2019-04-28T17:31:44.922Z,5.00
2019-04-28T17:34:13.813Z,5.73
2019-04-28T17:36:42.684Z,5.47
2019-04-28T17:39:16.556Z,5.50
2019-04-28T17:41:45.613Z,5.57
2019-04-28T17:44:17.117Z,5.63
2019-04-28T17:46:45.641Z,5.63
2019-04-28T17:49:14.635Z,5.87
2019-04-28T17:51:43.937Z,5.47
2019-04-28T17:54:12.825Z,5.50
2019-04-28T17:56:41.546Z,5.90
2019-04-28T17:59:11.123Z,5.80
2019-04-28T18:02:01.997Z,6.20
2019-04-28T18:04:50.273Z,6.43
2019-04-28T18:07:24.285Z,6.47
2019-04-28T18:09:52.994Z,7.17
2019-04-28T18:12:21.790Z,6.90
2019-04-28T18:14:52.337Z,6.60
2019-04-28T18:17:39.101Z,6.50
2019-04-28T18:20:08.606Z,6.90
2019-04-28T18:22:37.598Z,6.47
2019-04-28T18:25:07.112Z,6.50
2019-04-28T18:27:36.494Z,7.00
2019-04-28T18:30:06.019Z,5.60
2019-04-28T18:33:09.425Z,6.37
2019-04-28T18:35:42.610Z,6.87
2019-04-28T18:38:19.711Z,7.00
2019-04-28T18:41:07.640Z,7.00
2019-04-28T18:44:00.896Z,7.03
2019-04-28T18:46:30.787Z,7.60
2019-04-28T18:48:59.384Z,7.00
2019-04-28T18:51:28.707Z,6.97
2019-04-28T18:53:57.993Z,7.00
2019-04-28T18:56:26.719Z,6.93
2019-04-28T18:58:55.983Z,7.37
2019-04-28T19:01:49.097Z,7.00
2019-04-28T19:04:18.972Z,7.20
2019-04-28T19:06:47.975Z,7.43
2019-04-28T19:09:27.047Z,7.23
2019-04-28T19:12:00.995Z,7.60
2019-04-28T19:14:37.519Z,7.77
2019-04-28T19:17:15.975Z,7.27
2019-04-28T19:19:44.905Z,7.57
2019-04-28T19:22:13.757Z,7.97
2019-04-28T19:24:42.463Z,7.60
2019-04-28T19:27:11.753Z,8.33
2019-04-28T19:29:40.639Z,8.23
2019-04-28T19:32:09.536Z,8.57
2019-04-28T19:34:39.174Z,8.07
2019-04-28T19:37:08.250Z,7.60
2019-04-28T19:39:36.862Z,7.83
2019-04-28T19:42:06.139Z,8.30
2019-04-28T19:44:35.611Z,8.27
2019-04-28T19:47:04.718Z,8.30
2019-04-28T19:49:33.714Z,8.23
2019-04-28T19:52:02.377Z,8.90
2019-04-28T19:54:34.778Z,8.90
2019-04-28T19:57:25.452Z,8.97
2019-04-28T20:00:12.288Z,9.17
2019-04-28T20:02:41.100Z,9.70
2019-04-28T20:05:10.170Z,9.03
2019-04-28T20:07:40.952Z,9.67
2019-04-28T20:10:09.489Z,9.50
2019-04-28T20:12:38.688Z,9.37
2019-04-28T20:15:08.195Z,9.47
2019-04-28T20:17:36.825Z,9.60
2019-04-28T20:20:05.950Z,9.47
2019-04-28T20:22:34.831Z,9.30
2019-04-28T20:25:03.829Z,9.20
2019-04-28T20:27:33.105Z,9.37
2019-04-28T20:30:01.692Z,9.33
2019-04-28T20:32:32.857Z,9.07
2019-04-28T20:35:01.792Z,9.07
2019-04-28T20:37:38.722Z,10.63
2019-04-28T20:40:12.368Z,10.63
2019-04-28T20:43:03.233Z,9.67
2019-04-28T20:45:32.474Z,9.23
2019-04-28T20:48:01.105Z,10.13
2019-04-28T20:50:30.055Z,10.57
2019-04-28T20:52:58.965Z,10.50
2019-04-28T20:55:27.988Z,10.80
2019-04-28T20:57:56.629Z,10.03
2019-04-28T21:00:25.618Z,10.20
2019-04-28T21:02:54.238Z,10.73
2019-04-28T21:05:23.217Z,10.13
2019-04-28T21:07:51.869Z,10.47
2019-04-28T21:10:20.769Z,9.50
2019-04-28T21:12:49.679Z,11.30
2019-04-28T21:15:18.975Z,11.10
2019-04-28T21:17:47.599Z,11.23
2019-04-28T21:20:16.530Z,11.10
2019-04-28T21:22:45.149Z,11.93
2019-04-28T21:25:14.223Z,11.37
2019-04-28T21:27:43.253Z,11.17
2019-04-28T21:30:12.825Z,11.87
2019-04-28T21:32:41.816Z,11.53
2019-04-28T21:35:10.811Z,12.07
2019-04-28T21:37:39.451Z,11.77
2019-04-28T21:40:09.517Z,12.20
2019-04-28T21:43:12.511Z,12.43
2019-04-28T21:45:57.477Z,12.37
2019-04-28T21:48:43.752Z,12.33
2019-04-28T21:51:12.671Z,11.30
2019-04-28T21:53:41.657Z,11.30
2019-04-28T21:56:10.344Z,10.90
2019-04-28T21:58:38.923Z,10.80
2019-04-28T22:01:09.257Z,11.10
2019-04-28T22:03:38.259Z,11.37
2019-04-28T22:06:06.944Z,10.60
2019-04-28T22:08:38.898Z,11.43
2019-04-28T22:11:07.896Z,10.70
2019-04-28T22:13:36.885Z,11.53
2019-04-28T22:16:05.969Z,11.20
2019-04-28T22:18:34.872Z,11.03
2019-04-28T22:21:03.498Z,10.23
2019-04-28T22:23:38.920Z,11.53
2019-04-28T22:26:09.414Z,11.30
2019-04-28T22:28:38.015Z,10.53
2019-04-28T22:31:07.008Z,11.57
2019-04-28T22:33:35.899Z,11.03
2019-04-28T22:36:04.905Z,11.73
2019-04-28T22:38:33.523Z,11.60
2019-04-28T22:41:02.780Z,10.90
2019-04-28T22:43:31.672Z,11.13
2019-04-28T22:46:00.598Z,11.10
2019-04-28T22:48:29.453Z,11.03
2019-04-28T22:50:58.449Z,10.23
2019-04-28T22:53:33.492Z,11.50
2019-04-28T22:56:27.975Z,11.33
2019-04-28T22:59:04.494Z,11.47
2019-04-28T23:01:36.866Z,12.10
2019-04-28T23:04:28.650Z,12.93
2019-04-28T23:06:57.841Z,13.03
2019-04-28T23:09:26.741Z,13.20
2019-04-28T23:11:55.631Z,13.77
2019-04-28T23:14:24.829Z,15.00
2019-04-28T23:16:53.740Z,14.47
2019-04-28T23:19:25.122Z,16.70
2019-04-28T23:22:06.106Z,15.97
2019-04-28T23:24:35.338Z,16.27
2019-04-28T23:27:04.452Z,15.27
2019-04-28T23:29:33.351Z,15.10
2019-04-28T23:32:02.331Z,14.57
2019-04-28T23:34:31.522Z,16.07
2019-04-28T23:37:00.517Z,17.07
2019-04-28T23:39:29.511Z,15.90
2019-04-28T23:42:08.809Z,16.00
2019-04-28T23:44:38.049Z,14.90
2019-04-28T23:47:07.714Z,17.67
2019-04-28T23:49:36.949Z,18.40
2019-04-28T23:52:31.136Z,18.87
2019-04-28T23:55:02.177Z,19.83
2019-04-28T23:57:31.478Z,21.43
